createdAt,value
2019-05-25T00:00:33.402Z,101809.09
2019-05-25T00:05:34.920Z,101801.10
2019-05-25T00:10:36.713Z,101795.28
2019-05-25T00:15:38.344Z,101796.95
2019-05-25T00:20:39.847Z,101799.08
2019-05-25T00:25:41.716Z,101809.97
2019-05-25T00:30:43.211Z,101811.12
2019-05-25T00:35:44.708Z,101811.83
2019-05-25T00:40:46.454Z,101812.09
2019-05-25T00:45:48.033Z,101806.27
2019-05-25T00:50:49.461Z,101815.23
2019-05-25T00:55:51.244Z,101811.08
2019-05-25T01:00:53.137Z,101820.95
2019-05-25T01:05:54.640Z,101823.02
2019-05-25T01:10:57.629Z,101814.02
2019-05-25T01:15:59.495Z,101817.48
2019-05-25T01:21:01.090Z,101816.90
2019-05-25T01:26:02.505Z,101811.52
2019-05-25T01:31:04.060Z,101809.30
2019-05-25T01:36:05.901Z,101813.14
2019-05-25T01:41:07.414Z,101817.03
2019-05-25T01:46:09.881Z,101815.63
2019-05-25T01:51:11.361Z,101817.28
2019-05-25T01:56:12.870Z,101814.59
2019-05-25T02:01:14.400Z,101813.53
2019-05-25T02:06:16.141Z,101813.88
2019-05-25T02:11:18.106Z,101814.94
2019-05-25T02:16:19.653Z,101818.73
2019-05-25T02:21:21.170Z,101808.96
2019-05-25T02:26:22.738Z,101810.80
2019-05-25T02:31:24.000Z,101809.98
2019-05-25T02:36:25.504Z,101804.91
2019-05-25T02:41:27.124Z,101811.73
2019-05-25T02:46:28.852Z,101814.14
2019-05-25T02:51:30.350Z,101808.72
2019-05-25T02:56:32.162Z,101803.61
2019-05-25T03:01:33.946Z,101799.92
2019-05-25T03:06:35.428Z,101796.72
2019-05-25T03:11:37.184Z,101791.30
2019-05-25T03:16:39.146Z,101803.53
2019-05-25T03:21:40.540Z,101799.87
2019-05-25T03:26:42.657Z,101793.55
2019-05-25T03:31:45.910Z,101796.02
2019-05-25T03:36:47.405Z,101798.57
2019-05-25T03:41:48.921Z,101795.84
2019-05-25T03:46:50.443Z,101790.94
2019-05-25T03:51:52.186Z,101795.52
2019-05-25T03:56:53.706Z,101798.57
2019-05-25T04:01:55.437Z,101803.80
2019-05-25T04:06:56.931Z,101798.72
2019-05-25T04:11:58.841Z,101817.60
2019-05-25T04:17:00.376Z,101822.92
2019-05-25T04:22:01.886Z,101824.40
2019-05-25T04:27:03.444Z,101829.80
2019-05-25T04:32:05.021Z,101824.83
2019-05-25T04:37:06.487Z,101832.52
2019-05-25T04:42:08.327Z,101828.68
2019-05-25T04:47:24.356Z,101834.53
2019-05-25T04:52:13.205Z,101838.05
2019-05-25T04:57:14.771Z,101852.33
2019-05-25T05:02:16.328Z,101852.38
2019-05-25T05:07:19.262Z,101862.53
2019-05-25T05:12:20.728Z,101874.47
2019-05-25T05:17:22.262Z,101868.58
2019-05-25T05:22:23.714Z,101858.36
2019-05-25T05:27:25.128Z,101863.09
2019-05-25T05:32:27.959Z,101860.30
2019-05-25T05:37:29.717Z,101859.12
2019-05-25T05:42:31.520Z,101862.17
2019-05-25T05:47:34.098Z,101862.81
2019-05-25T05:52:36.352Z,101867.45
2019-05-25T05:57:38.283Z,101864.88
2019-05-25T06:02:39.779Z,101869.30
2019-05-25T06:07:41.374Z,101868.66
2019-05-25T06:12:42.891Z,101881.80
2019-05-25T06:17:44.898Z,101878.28
2019-05-25T06:22:46.761Z,101882.13
2019-05-25T06:27:48.273Z,101888.92
2019-05-25T06:32:49.963Z,101894.99
2019-05-25T06:37:51.499Z,101891.09
2019-05-25T06:42:53.134Z,101896.91
2019-05-25T06:47:54.924Z,101894.88
2019-05-25T06:52:57.978Z,101896.52
2019-05-25T06:58:00.123Z,101901.55
2019-05-25T07:03:02.104Z,101903.98
2019-05-25T07:08:04.003Z,101899.58
2019-05-25T07:13:06.707Z,101897.77
2019-05-25T07:18:08.498Z,101896.19
2019-05-25T07:23:09.954Z,101897.51
2019-05-25T07:28:11.460Z,101910.52
2019-05-25T07:33:13.004Z,101912.11
2019-05-25T07:38:14.933Z,101917.67
2019-05-25T07:43:17.430Z,101922.65
2019-05-25T07:48:18.966Z,101931.83
2019-05-25T07:53:20.969Z,101932.83
2019-05-25T07:58:22.515Z,101929.66
2019-05-25T08:03:24.047Z,101926.89
2019-05-25T08:08:25.969Z,101933.38
2019-05-25T08:13:27.773Z,101933.09
2019-05-25T08:18:30.011Z,101937.66
2019-05-25T08:23:31.780Z,101937.02
2019-05-25T08:28:33.438Z,101934.99
2019-05-25T08:33:34.761Z,101942.30
2019-05-25T08:38:36.302Z,101940.33
2019-05-25T08:43:37.688Z,101947.94
2019-05-25T08:48:39.225Z,101949.92
2019-05-25T08:53:42.343Z,101957.97
2019-05-25T08:58:48.526Z,101950.78
2019-05-25T09:03:47.779Z,101951.73
2019-05-25T09:08:49.529Z,101949.70
2019-05-25T09:13:51.281Z,101943.88
2019-05-25T09:18:52.843Z,101947.92
2019-05-25T09:23:54.383Z,101938.23
2019-05-25T09:29:04.369Z,101942.76
2019-05-25T09:33:59.375Z,101938.16
2019-05-25T09:39:01.494Z,101935.84
2019-05-25T09:44:03.162Z,101931.53
2019-05-25T09:49:06.363Z,101931.85
2019-05-25T09:54:08.030Z,101934.83
2019-05-25T09:59:19.782Z,101941.49
2019-05-25T10:04:12.974Z,101942.39
2019-05-25T10:09:14.496Z,101936.28
2019-05-25T10:14:16.320Z,101936.33
2019-05-25T10:19:18.402Z,101932.16
2019-05-25T10:24:20.198Z,101923.84
2019-05-25T10:29:36.203Z,101928.91
2019-05-25T10:34:25.750Z,101925.70
2019-05-25T10:39:27.515Z,101923.09
2019-05-25T10:44:29.238Z,101918.26
2019-05-25T10:49:30.690Z,101911.55
2019-05-25T10:54:31.970Z,101908.40
2019-05-25T10:59:33.459Z,101907.08
2019-05-25T11:04:35.261Z,101891.37
2019-05-25T11:09:36.665Z,101886.05
2019-05-25T11:14:38.343Z,101896.73
2019-05-25T11:19:39.902Z,101892.72
2019-05-25T11:24:41.511Z,101890.42
2019-05-25T11:29:43.110Z,101898.52
2019-05-25T11:34:45.262Z,101897.98
2019-05-25T11:39:47.445Z,101901.26
2019-05-25T11:44:49.519Z,101897.91
2019-05-25T11:49:51.040Z,101890.09
2019-05-25T11:54:52.607Z,101886.97
2019-05-25T11:59:54.332Z,101886.05
2019-05-25T12:04:56.283Z,101898.56
2019-05-25T12:09:57.922Z,101898.06
2019-05-25T12:14:59.466Z,101896.55
2019-05-25T12:20:01.026Z,101883.59
2019-05-25T12:25:03.193Z,101879.93
2019-05-25T12:30:04.732Z,101879.93
2019-05-25T12:35:06.409Z,101880.53
2019-05-25T12:40:07.960Z,101883.47
2019-05-25T12:45:09.608Z,101878.91
2019-05-25T12:50:11.163Z,101874.70
2019-05-25T12:55:12.708Z,101878.83
2019-05-25T13:00:16.363Z,101874.41
2019-05-25T13:05:32.659Z,101874.48
2019-05-25T13:10:21.614Z,101880.27
2019-05-25T13:15:23.501Z,101881.08
2019-05-25T13:20:25.211Z,101884.59
2019-05-25T13:25:26.578Z,101880.45
2019-05-25T13:30:28.024Z,101879.98
2019-05-25T13:35:29.498Z,101875.80
2019-05-25T13:40:31.843Z,101878.53
2019-05-25T13:45:33.585Z,101876.53
2019-05-25T13:50:35.113Z,101873.98
2019-05-25T13:55:36.665Z,101869.98
2019-05-25T14:00:38.127Z,101863.30
2019-05-25T14:05:39.672Z,101851.66
2019-05-25T14:10:41.389Z,101854.34
2019-05-25T14:15:43.021Z,101848.52
2019-05-25T14:20:44.538Z,101846.73
2019-05-25T14:25:46.402Z,101845.90
2019-05-25T14:30:48.311Z,101843.61
2019-05-25T14:35:50.083Z,101848.06
2019-05-25T14:40:51.592Z,101844.06
2019-05-25T14:45:53.651Z,101846.28
2019-05-25T14:50:55.460Z,101844.55
2019-05-25T14:55:59.910Z,101829.80
2019-05-25T15:01:01.545Z,101835.08
2019-05-25T15:06:03.295Z,101841.83
2019-05-25T15:11:04.885Z,101829.35
2019-05-25T15:16:06.418Z,101833.36
2019-05-25T15:21:08.145Z,101831.58
2019-05-25T15:26:10.062Z,101828.43
2019-05-25T15:31:11.623Z,101826.64
2019-05-25T15:36:13.024Z,101823.97
2019-05-25T15:41:15.225Z,101815.52
2019-05-25T15:46:16.755Z,101802.59
2019-05-25T15:51:18.624Z,101804.37
2019-05-25T15:56:20.207Z,101802.53
2019-05-25T16:01:21.782Z,101799.79
2019-05-25T16:06:24.024Z,101791.23
2019-05-25T16:11:26.751Z,101783.22
2019-05-25T16:16:30.150Z,101785.02
2019-05-25T16:21:32.275Z,101790.83
2019-05-25T16:26:45.627Z,101796.17
2019-05-25T16:31:37.317Z,101791.73
2019-05-25T16:36:39.188Z,101791.33
2019-05-25T16:41:41.379Z,101783.34
2019-05-25T16:46:43.203Z,101783.82
2019-05-25T16:51:44.647Z,101780.70
2019-05-25T16:56:46.236Z,101775.33
2019-05-25T17:01:48.942Z,101789.17
2019-05-25T17:06:50.353Z,101780.64
2019-05-25T17:11:51.604Z,101788.19
2019-05-25T17:16:53.565Z,101777.45
2019-05-25T17:21:55.227Z,101783.39
2019-05-25T17:26:57.472Z,101782.76
2019-05-25T17:31:59.408Z,101775.73
2019-05-25T17:37:00.880Z,101778.52
2019-05-25T17:42:02.651Z,101777.48
2019-05-25T17:47:04.484Z,101782.91
2019-05-25T17:52:05.966Z,101786.37
2019-05-25T17:57:07.521Z,101794.25
2019-05-25T18:02:09.081Z,101788.30
2019-05-25T18:07:10.802Z,101790.30
2019-05-25T18:12:12.437Z,101790.27
2019-05-25T18:17:14.391Z,101792.06
2019-05-25T18:22:16.030Z,101788.58
2019-05-25T18:27:17.585Z,101789.67
2019-05-25T18:32:19.178Z,101792.31
2019-05-25T18:37:20.988Z,101789.94
2019-05-25T18:42:22.640Z,101786.67
2019-05-25T18:47:25.367Z,101784.80
2019-05-25T18:52:27.268Z,101784.91
2019-05-25T18:57:28.701Z,101784.63
2019-05-25T19:02:30.719Z,101783.38
2019-05-25T19:07:32.726Z,101780.52
2019-05-25T19:12:34.306Z,101777.47
2019-05-25T19:17:36.180Z,101780.83
2019-05-25T19:22:37.824Z,101776.63
2019-05-25T19:27:39.399Z,101781.85
2019-05-25T19:32:41.606Z,101795.75
2019-05-25T19:37:43.186Z,101790.94
2019-05-25T19:42:48.907Z,101800.87
2019-05-25T19:47:49.086Z,101801.73
2019-05-25T19:52:50.649Z,101802.68
2019-05-25T19:57:52.568Z,101801.95
2019-05-25T20:02:54.044Z,101806.17
2019-05-25T20:07:56.743Z,101812.13
2019-05-25T20:12:58.682Z,101820.30
2019-05-25T20:18:00.561Z,101816.51
2019-05-25T20:23:02.150Z,101828.11
2019-05-25T20:28:03.773Z,101827.70
2019-05-25T20:33:05.281Z,101831.98
2019-05-25T20:38:07.126Z,101834.97
2019-05-25T20:43:09.003Z,101836.21
2019-05-25T20:48:10.994Z,101848.06
2019-05-25T20:53:12.790Z,101844.53
2019-05-25T20:58:14.658Z,101840.48
2019-05-25T21:03:16.258Z,101839.09
2019-05-25T21:08:17.893Z,101837.75
2019-05-25T21:13:19.519Z,101844.48
2019-05-25T21:18:21.177Z,101850.43
2019-05-25T21:23:22.826Z,101845.91
2019-05-25T21:28:24.570Z,101844.80
2019-05-25T21:33:26.432Z,101843.38
2019-05-25T21:38:28.285Z,101843.58
2019-05-25T21:43:30.176Z,101841.53
2019-05-25T21:48:32.060Z,101839.77
2019-05-25T21:53:33.562Z,101841.13
2019-05-25T21:58:35.127Z,101846.11
2019-05-25T22:03:37.111Z,101833.08
2019-05-25T22:08:39.027Z,101827.16
2019-05-25T22:13:40.544Z,101819.47
2019-05-25T22:18:42.199Z,101809.23
2019-05-25T22:23:43.744Z,101815.03
2019-05-25T22:28:45.531Z,101817.01
2019-05-25T22:33:47.696Z,101804.82
2019-05-25T22:38:49.261Z,101809.39
2019-05-25T22:43:51.100Z,101811.86
2019-05-25T22:48:53.071Z,101806.30
2019-05-25T22:53:54.713Z,101797.20
2019-05-25T22:58:56.243Z,101791.58
2019-05-25T23:03:58.097Z,101790.22
2019-05-25T23:08:59.640Z,101784.43
2019-05-25T23:14:01.404Z,101777.48
2019-05-25T23:19:02.932Z,101779.77
2019-05-25T23:24:04.238Z,101777.55
2019-05-25T23:29:05.975Z,101778.29
2019-05-25T23:34:08.001Z,101771.45
2019-05-25T23:39:09.536Z,101768.08
2019-05-25T23:44:11.090Z,101758.15
2019-05-25T23:49:12.600Z,101752.59
2019-05-25T23:54:14.626Z,101743.89
2019-05-25T23:59:16.123Z,101741.80
